<?xml version='1.0' encoding='UTF-8'?><gpx version="1.1" creator="JPX - https://github.com/jenetics/jpx" xmlns="http://www.topografix.com/GPX/1/1"><trk><trkseg><trkpt lat="48.591925373852455" lon="-2.552339429979379"><ele>10.0</ele><time>2026-05-02T19:00:03Z</time></trkpt><trkpt lat="48.59186121943392" lon="-2.5523932939135534"><ele>10.0</ele><time>2026-05-02T19:00:06Z</time></trkpt><trkpt lat="48.59179874743111" lon="-2.5524200036660694"><ele>10.0</ele><time>2026-05-02T19:00:09Z</time></trkpt><trkpt lat="48.5917195964067" lon="-2.552499404190693"><ele>10.0</ele><time>2026-05-02T19:00:12Z</time></trkpt><trkpt lat="48.59167050669579" lon="-2.5525625276263177"><ele>10.0</ele><time>2026-05-02T19:00:14Z</time></trkpt><trkpt lat="48.59157634672669" lon="-2.552625743634789"><ele>10.0</ele><time>2026-05-02T19:00:16Z</time></trkpt><trkpt lat="48.59150773157302" lon="-2.5526852370635367"><ele>10.0</ele><time>2026-05-02T19:00:17Z</time></trkpt><trkpt lat="48.59146092605263" lon="-2.552752016254321"><ele>10.0</ele><time>2026-05-02T19:00:17.999Z</time></trkpt><trkpt lat="48.59135125358805" lon="-2.5528222121204256"><ele>10.0</ele><time>2026-05-02T19:00:19.999Z</time></trkpt><trkpt lat="48.591272309075755" lon="-2.552958943699288"><ele>10.0</ele><time>2026-05-02T19:00:21.999Z</time></trkpt><trkpt lat="48.59119508254285" lon="-2.5530831254906965"><ele>10.0</ele><time>2026-05-02T19:00:23.999Z</time></trkpt><trkpt lat="48.59111638436774" lon="-2.5531906715773243"><ele>10.2</ele><time>2026-05-02T19:00:25.999Z</time></trkpt><trkpt lat="48.591039795000434" lon="-2.5533022409946415"><ele>10.4</ele><time>2026-05-02T19:00:27.999Z</time></trkpt><trkpt lat="48.590960154707375" lon="-2.553424448726345"><ele>10.600000000000001</ele><time>2026-05-02T19:00:29.999Z</time></trkpt><trkpt lat="48.590857846396744" lon="-2.5535261923864283"><ele>10.8</ele><time>2026-05-02T19:00:31.999Z</time></trkpt><trkpt lat="48.59076566333239" lon="-2.5535565500833735"><ele>11.0</ele><time>2026-05-02T19:00:33.999Z</time></trkpt><trkpt lat="48.59068019675731" lon="-2.553630606691577"><ele>11.0</ele><time>2026-05-02T19:00:35.999Z</time></trkpt><trkpt lat="48.59060435284256" lon="-2.5536885950297354"><ele>11.0</ele><time>2026-05-02T19:00:37.999Z</time></trkpt><trkpt lat="48.59053992404163" lon="-2.553787119424037"><ele>11.0</ele><time>2026-05-02T19:00:39.999Z</time></trkpt><trkpt lat="48.5904638853783" lon="-2.5538908939406615"><ele>11.0</ele><time>2026-05-02T19:00:41.999Z</time></trkpt><trkpt lat="48.59037870731607" lon="-2.553953771810689"><ele>11.0</ele><time>2026-05-02T19:00:43.999Z</time></trkpt><trkpt lat="48.59029975207388" lon="-2.5540409511133584"><ele>11.0</ele><time>2026-05-02T19:00:45.999Z</time></trkpt><trkpt lat="48.59021945709636" lon="-2.554146039611632"><ele>11.0</ele><time>2026-05-02T19:00:47.999Z</time></trkpt><trkpt lat="48.590154624484896" lon="-2.55423587512032"><ele>11.0</ele><time>2026-05-02T19:00:49.999Z</time></trkpt><trkpt lat="48.59010630869722" lon="-2.5543226897094726"><ele>11.0</ele><time>2026-05-02T19:00:51.999Z</time></trkpt><trkpt lat="48.59005758788645" lon="-2.554399039934704"><ele>11.0</ele><time>2026-05-02T19:00:53.999Z</time></trkpt><trkpt lat="48.58997189335706" lon="-2.55446713393986"><ele>11.0</ele><time>2026-05-02T19:00:55.999Z</time></trkpt><trkpt lat="48.589909210781286" lon="-2.5545142478951655"><ele>9.600000000000001</ele><time>2026-05-02T19:00:57.999Z</time></trkpt><trkpt lat="48.58983349874496" lon="-2.554613614051726"><ele>8.200000000000001</ele><time>2026-05-02T19:00:59.999Z</time></trkpt><trkpt lat="48.58976025573851" lon="-2.5547370061918326"><ele>6.800000000000001</ele><time>2026-05-02T19:01:01.999Z</time></trkpt><trkpt lat="48.589674153445955" lon="-2.554822438697169"><ele>5.4</ele><time>2026-05-02T19:01:03.999Z</time></trkpt><trkpt lat="48.58961442471735" lon="-2.554917058725948"><ele>4.0</ele><time>2026-05-02T19:01:05.999Z</time></trkpt><trkpt lat="48.58955460983272" lon="-2.5550021890165104"><ele>4.5</ele><time>2026-05-02T19:01:07.999Z</time></trkpt><trkpt lat="48.589498210644656" lon="-2.555078266686706"><ele>5.0</ele><time>2026-05-02T19:01:09.999Z</time></trkpt><trkpt lat="48.58944415045162" lon="-2.5551639823634087"><ele>5.5</ele><time>2026-05-02T19:01:11.999Z</time></trkpt><trkpt lat="48.58938723144899" lon="-2.555236332750514"><ele>6.0</ele><time>2026-05-02T19:01:12.999Z</time></trkpt><trkpt lat="48.589329528230024" lon="-2.555323517274681"><ele>6.500000000000001</ele><time>2026-05-02T19:01:14.999Z</time></trkpt><trkpt lat="48.589257516250086" lon="-2.555403552707772"><ele>7.0</ele><time>2026-05-02T19:01:16.999Z</time></trkpt><trkpt lat="48.589191759252365" lon="-2.5554824475155233"><ele>7.000000000000001</ele><time>2026-05-02T19:01:18.999Z</time></trkpt><trkpt lat="48.58911876741707" lon="-2.5555713170787095"><ele>7.0</ele><time>2026-05-02T19:01:20.999Z</time></trkpt><trkpt lat="48.589059108234274" lon="-2.5556480654002915"><ele>7.0</ele><time>2026-05-02T19:01:22.999Z</time></trkpt><trkpt lat="48.58900134832247" lon="-2.55573530616489"><ele>7.0</ele><time>2026-05-02T19:01:25Z</time></trkpt><trkpt lat="48.5889352970729" lon="-2.5558146584330848"><ele>7.000000000000001</ele><time>2026-05-02T19:01:27Z</time></trkpt><trkpt lat="48.58888833110303" lon="-2.5559322804213824"><ele>7.0</ele><time>2026-05-02T19:01:29Z</time></trkpt><trkpt lat="48.588834986137954" lon="-2.5560382985501247"><ele>7.000000000000001</ele><time>2026-05-02T19:01:31Z</time></trkpt><trkpt lat="48.58876130070037" lon="-2.5561080452554292"><ele>7.0</ele><time>2026-05-02T19:01:33Z</time></trkpt><trkpt lat="48.58870535175969" lon="-2.5561830406336656"><ele>7.0</ele><time>2026-05-02T19:01:35Z</time></trkpt><trkpt lat="48.58864105746565" lon="-2.556246748946944"><ele>7.0</ele><time>2026-05-02T19:01:37Z</time></trkpt><trkpt lat="48.588576182678054" lon="-2.556312406280313"><ele>7.000000000000001</ele><time>2026-05-02T19:01:39Z</time></trkpt><trkpt lat="48.588540302633426" lon="-2.5564092541189134"><ele>7.0</ele><time>2026-05-02T19:01:41Z</time></trkpt><trkpt lat="48.58846610207841" lon="-2.5564704320214675"><ele>7.285714285714286</ele><time>2026-05-02T19:01:44Z</time></trkpt><trkpt lat="48.588404083248925" lon="-2.5565301213988105"><ele>7.571428571428571</ele><time>2026-05-02T19:01:48Z</time></trkpt><trkpt lat="48.588339758683944" lon="-2.556583368373943"><ele>7.857142857142858</ele><time>2026-05-02T19:01:52Z</time></trkpt><trkpt lat="48.588288641439696" lon="-2.556662967705291"><ele>8.142857142857142</ele><time>2026-05-02T19:01:57Z</time></trkpt><trkpt lat="48.58823943720429" lon="-2.55672458018551"><ele>8.428571428571429</ele><time>2026-05-02T19:02:03Z</time></trkpt><trkpt lat="48.58817610039112" lon="-2.5567792389361794"><ele>8.714285714285715</ele><time>2026-05-02T19:02:08Z</time></trkpt><trkpt lat="48.588137725798475" lon="-2.556862768076215"><ele>9.0</ele><time>2026-05-02T19:02:12.999Z</time></trkpt><trkpt lat="48.588089952961376" lon="-2.55694785029179"><ele>9.000000000000002</ele><time>2026-05-02T19:02:17.999Z</time></trkpt><trkpt lat="48.58804977483971" lon="-2.5570269976742934"><ele>9.0</ele><time>2026-05-02T19:02:22.999Z</time></trkpt><trkpt lat="48.58799443964934" lon="-2.557094814379778"><ele>9.0</ele><time>2026-05-02T19:02:27.999Z</time></trkpt><trkpt lat="48.58794157362678" lon="-2.557163217490089"><ele>9.0</ele><time>2026-05-02T19:02:32.999Z</time></trkpt><trkpt lat="48.587877208748516" lon="-2.557216086383886"><ele>9.0</ele><time>2026-05-02T19:02:37.999Z</time></trkpt><trkpt lat="48.587829343070155" lon="-2.5572932829938786"><ele>9.000000000000002</ele><time>2026-05-02T19:02:42.999Z</time></trkpt><trkpt lat="48.58778661588744" lon="-2.557367263929613"><ele>9.0</ele><time>2026-05-02T19:02:46.999Z</time></trkpt><trkpt lat="48.587743695813394" lon="-2.5574380032495467"><ele>9.2</ele><time>2026-05-02T19:02:50.999Z</time></trkpt><trkpt lat="48.58767748527927" lon="-2.557525252283661"><ele>9.4</ele><time>2026-05-02T19:02:53.999Z</time></trkpt><trkpt lat="48.58761009401581" lon="-2.557602616549202"><ele>9.6</ele><time>2026-05-02T19:02:55.999Z</time></trkpt><trkpt lat="48.58753741940369" lon="-2.557702872661274"><ele>9.8</ele><time>2026-05-02T19:02:57.999Z</time></trkpt><trkpt lat="48.58747041943202" lon="-2.557800610937523"><ele>10.0</ele><time>2026-05-02T19:02:59.999Z</time></trkpt><trkpt lat="48.587401836753486" lon="-2.557908356964987"><ele>9.2</ele><time>2026-05-02T19:03:01.999Z</time></trkpt><trkpt lat="48.587332650342965" lon="-2.5580466660564802"><ele>8.4</ele><time>2026-05-02T19:03:05.999Z</time></trkpt><trkpt lat="48.587265526716656" lon="-2.55810678092473"><ele>7.6</ele><time>2026-05-02T19:03:06.999Z</time></trkpt><trkpt lat="48.5871743791951" lon="-2.5582128404163176"><ele>6.8</ele><time>2026-05-02T19:03:08.999Z</time></trkpt><trkpt lat="48.58710367518383" lon="-2.5582339906164626"><ele>6.0</ele><time>2026-05-02T19:03:09.999Z</time></trkpt><trkpt lat="48.58703005985665" lon="-2.5583443402101183"><ele>6.4</ele><time>2026-05-02T19:03:11.999Z</time></trkpt><trkpt lat="48.58697443033935" lon="-2.558469370148476"><ele>6.8</ele><time>2026-05-02T19:03:13.999Z</time></trkpt><trkpt lat="48.586909968697185" lon="-2.558573872275343"><ele>7.200000000000001</ele><time>2026-05-02T19:03:15.999Z</time></trkpt><trkpt lat="48.586830427240564" lon="-2.5586706750541106"><ele>7.6000000000000005</ele><time>2026-05-02T19:03:17.999Z</time></trkpt><trkpt lat="48.58676768857307" lon="-2.5587753817134544"><ele>8.0</ele><time>2026-05-02T19:03:19.999Z</time></trkpt><trkpt lat="48.586699475502144" lon="-2.5588978578909125"><ele>8.0</ele><time>2026-05-02T19:03:21.999Z</time></trkpt><trkpt lat="48.586631130758384" lon="-2.559000674768333"><ele>8.0</ele><time>2026-05-02T19:03:23.999Z</time></trkpt><trkpt lat="48.586565570855136" lon="-2.559102260884152"><ele>8.0</ele><time>2026-05-02T19:03:25.999Z</time></trkpt><trkpt lat="48.58649714292463" lon="-2.5592299547782136"><ele>8.0</ele><time>2026-05-02T19:03:27.999Z</time></trkpt><trkpt lat="48.58643067138274" lon="-2.5593085239713615"><ele>8.0</ele><time>2026-05-02T19:03:29.999Z</time></trkpt><trkpt lat="48.586359371722196" lon="-2.559421596829439"><ele>7.999999999999999</ele><time>2026-05-02T19:03:32Z</time></trkpt><trkpt lat="48.58631547661329" lon="-2.5595219361964814"><ele>8.0</ele><time>2026-05-02T19:03:34Z</time></trkpt><trkpt lat="48.5862580941654" lon="-2.559627031364449"><ele>8.0</ele><time>2026-05-02T19:03:36Z</time></trkpt><trkpt lat="48.58619973399712" lon="-2.559740583461425"><ele>8.0</ele><time>2026-05-02T19:03:38Z</time></trkpt><trkpt lat="48.586131489379866" lon="-2.5598303873165262"><ele>7.999999999999999</ele><time>2026-05-02T19:03:40Z</time></trkpt><trkpt lat="48.586077242969886" lon="-2.5599004539271712"><ele>8.0</ele><time>2026-05-02T19:03:42Z</time></trkpt><trkpt lat="48.58601360638959" lon="-2.5599635158914102"><ele>8.0</ele><time>2026-05-02T19:03:46Z</time></trkpt><trkpt lat="48.58595927533189" lon="-2.5600459254974184"><ele>8.0</ele><time>2026-05-02T19:03:52Z</time></trkpt><trkpt lat="48.58590718710213" lon="-2.5601070053205146"><ele>8.0</ele><time>2026-05-02T19:03:56Z</time></trkpt><trkpt lat="48.585865607700576" lon="-2.5601936545210293"><ele>8.0</ele><time>2026-05-02T19:04:02Z</time></trkpt><trkpt lat="48.58581554423703" lon="-2.5602557462709217"><ele>8.0</ele><time>2026-05-02T19:04:07Z</time></trkpt><trkpt lat="48.5853431703963" lon="-2.5609819267790126"><ele>9.0</ele><time>2026-05-02T19:04:59.999Z</time></trkpt></trkseg></trk></gpx>